Time;durP1;ratioP1;P1;durP2;ratioP2;P2;SDS_P1;SDS_P2;PMS_P1;PMS_P2;Temp;Humidity;BMP_temperature;BMP_pressure;BME280_temperature;BME280_humidity;BME280_pressure;Samples;Min_cycle;Max_cycle;Signal;HPM_P1;HPM_P2
2021/09/09 00:00:59;;;;;;;5.83;5.07;;;16.20;99.90;;;;;;492828;241;28852;-72
2021/09/09 00:03:00;;;;;;;5.07;4.57;;;16.20;99.90;;;;;;492840;241;29459;-71
2021/09/09 00:05:02;;;;;;;4.40;4.00;;;16.20;99.90;;;;;;492851;241;29230;-72
2021/09/09 00:07:03;;;;;;;5.20;4.70;;;16.20;99.90;;;;;;492828;241;29453;-69
2021/09/09 00:09:05;;;;;;;5.43;4.93;;;16.10;99.90;;;;;;492810;241;28773;-70
2021/09/09 00:11:05;;;;;;;4.73;4.33;;;16.10;99.90;;;;;;492810;241;28911;-70
2021/09/09 00:13:07;;;;;;;5.20;4.70;;;16.10;99.90;;;;;;492861;241;28799;-70
2021/09/09 00:15:08;;;;;;;5.33;4.87;;;16.10;99.90;;;;;;492861;241;28789;-69
2021/09/09 00:17:09;;;;;;;5.00;4.50;;;16.00;99.90;;;;;;492860;241;28831;-72
2021/09/09 00:19:10;;;;;;;5.27;4.77;;;16.00;99.90;;;;;;492858;241;28798;-72
2021/09/09 00:21:12;;;;;;;5.90;5.30;;;16.00;99.90;;;;;;492809;241;28904;-72
2021/09/09 00:23:13;;;;;;;5.57;5.07;;;15.90;99.90;;;;;;492842;241;29172;-69
2021/09/09 00:25:14;;;;;;;5.10;4.60;;;16.00;99.90;;;;;;492849;241;28781;-72
2021/09/09 00:27:15;;;;;;;5.07;4.57;;;15.90;99.90;;;;;;492817;241;29341;-73
2021/09/09 00:29:17;;;;;;;5.63;5.00;;;16.00;99.90;;;;;;492838;241;29249;-71
2021/09/09 00:31:18;;;;;;;5.17;4.70;;;16.00;99.90;;;;;;492832;241;29289;-72
2021/09/09 00:33:19;;;;;;;5.00;4.50;;;16.10;99.90;;;;;;492849;241;28826;-72
2021/09/09 00:35:20;;;;;;;5.10;4.60;;;16.00;99.90;;;;;;492839;241;28774;-71
2021/09/09 00:37:22;;;;;;;5.43;4.93;;;16.10;99.90;;;;;;492856;241;28856;-72
2021/09/09 00:39:23;;;;;;;5.00;4.50;;;16.10;99.90;;;;;;492846;241;28810;-70
2021/09/09 00:41:24;;;;;;;5.73;4.87;;;16.10;99.90;;;;;;492825;241;28802;-70
2021/09/09 00:43:25;;;;;;;5.13;4.63;;;16.10;99.90;;;;;;492879;241;28942;-70
2021/09/09 00:45:27;;;;;;;5.23;4.73;;;16.10;99.90;;;;;;492866;241;28921;-72
2021/09/09 00:47:28;;;;;;;4.97;4.47;;;16.10;99.90;;;;;;492866;241;28816;-69
2021/09/09 00:49:29;;;;;;;5.10;4.60;;;16.10;99.90;;;;;;492825;241;28786;-70
2021/09/09 00:51:30;;;;;;;5.30;4.50;;;16.10;99.90;;;;;;492843;241;29448;-69
2021/09/09 00:53:32;;;;;;;4.83;4.40;;;16.10;99.90;;;;;;492855;241;29420;-69
2021/09/09 00:55:33;;;;;;;5.03;4.63;;;16.10;99.90;;;;;;492839;241;29293;-69
2021/09/09 00:57:34;;;;;;;5.00;4.30;;;16.10;99.90;;;;;;492822;241;29370;-71
2021/09/09 00:59:35;;;;;;;5.20;4.70;;;16.00;99.90;;;;;;492828;241;28873;-71
2021/09/09 01:01:37;;;;;;;5.17;4.67;;;15.90;99.90;;;;;;492858;241;28900;-70
2021/09/09 01:03:38;;;;;;;5.77;5.27;;;16.00;99.90;;;;;;492850;241;28816;-69
2021/09/09 01:05:39;;;;;;;5.60;5.10;;;16.00;99.90;;;;;;492840;241;28773;-70
2021/09/09 01:07:41;;;;;;;5.03;4.60;;;16.00;99.90;;;;;;492855;241;28817;-69
2021/09/09 01:09:42;;;;;;;5.67;5.17;;;16.00;99.90;;;;;;492817;241;28892;-69
2021/09/09 01:11:43;;;;;;;5.30;4.80;;;16.00;99.90;;;;;;492855;241;28827;-69
2021/09/09 01:13:44;;;;;;;5.20;4.70;;;16.00;99.90;;;;;;492849;241;28824;-71
2021/09/09 01:15:45;;;;;;;5.53;4.90;;;16.00;99.90;;;;;;492829;241;29240;-72
2021/09/09 01:17:47;;;;;;;5.10;4.60;;;15.90;99.90;;;;;;492803;241;29277;-72
2021/09/09 01:19:48;;;;;;;5.37;4.87;;;15.90;99.90;;;;;;492748;241;29278;-72
2021/09/09 01:21:49;;;;;;;5.70;4.60;;;15.90;99.90;;;;;;492804;241;29203;-71
2021/09/09 01:23:50;;;;;;;5.47;4.70;;;15.90;99.90;;;;;;492808;241;28816;-71
2021/09/09 01:25:52;;;;;;;5.40;4.87;;;15.90;99.90;;;;;;492811;241;28903;-72
2021/09/09 01:27:53;;;;;;;5.73;4.93;;;15.80;99.90;;;;;;492812;241;28845;-72
2021/09/09 01:29:54;;;;;;;5.13;4.63;;;15.80;99.90;;;;;;492785;241;28971;-70
2021/09/09 01:31:55;;;;;;;4.80;4.30;;;15.80;99.90;;;;;;492850;241;28789;-72
2021/09/09 01:33:57;;;;;;;5.37;4.87;;;15.80;99.90;;;;;;492856;241;28832;-69
2021/09/09 01:35:58;;;;;;;6.00;4.50;;;15.90;99.90;;;;;;492821;241;28798;-69
2021/09/09 01:37:59;;;;;;;5.50;4.80;;;15.90;99.90;;;;;;492843;241;28813;-69
2021/09/09 01:40:01;;;;;;;4.73;4.33;;;17.40;99.90;;;;;;492800;241;28829;-70
2021/09/09 01:42:02;;;;;;;4.40;4.00;;;15.90;99.90;;;;;;492870;241;29226;-69
2021/09/09 01:44:03;;;;;;;5.50;4.63;;;15.90;99.90;;;;;;492839;241;29368;-70
2021/09/09 01:46:04;;;;;;;4.80;4.40;;;15.80;99.90;;;;;;492845;241;29206;-70
2021/09/09 01:48:05;;;;;;;4.97;4.53;;;15.80;99.90;;;;;;492823;241;28896;-70
2021/09/09 01:50:07;;;;;;;5.30;4.80;;;15.90;99.90;;;;;;492825;241;28899;-70
2021/09/09 01:52:08;;;;;;;4.50;4.10;;;15.80;99.90;;;;;;492874;241;28770;-70
2021/09/09 01:54:09;;;;;;;5.37;4.87;;;15.80;99.90;;;;;;492887;241;28817;-70
2021/09/09 01:56:11;;;;;;;5.57;5.07;;;15.70;99.90;;;;;;492830;241;28913;-69
2021/09/09 01:58:12;;;;;;;4.80;4.30;;;15.70;99.90;;;;;;492849;241;28822;-72
2021/09/09 02:00:13;;;;;;;5.07;4.60;;;15.70;99.90;;;;;;492792;241;28820;-72
2021/09/09 02:02:14;;;;;;;6.00;5.40;;;15.70;99.90;;;;;;492837;241;28850;-72
2021/09/09 02:04:16;;;;;;;4.77;4.30;;;15.80;99.90;;;;;;492828;241;29301;-72
2021/09/09 02:06:17;;;;;;;4.93;4.40;;;15.80;99.90;;;;;;492801;241;29238;-71
2021/09/09 02:08:18;;;;;;;5.20;4.70;;;15.80;99.90;;;;;;492837;241;29300;-71
2021/09/09 02:10:22;;;;;;;6.40;4.73;;;15.70;99.90;;;;;;492825;241;29468;-72
2021/09/09 02:12:23;;;;;;;6.80;5.17;;;15.60;99.90;;;;;;492842;241;30046;-72
2021/09/09 02:14:25;;;;;;;4.40;4.10;;;15.50;99.90;;;;;;492842;241;29208;-72
2021/09/09 02:16:26;;;;;;;5.13;4.63;;;15.50;99.90;;;;;;492820;241;28893;-72
2021/09/09 02:18:27;;;;;;;4.97;4.57;;;15.50;99.90;;;;;;492838;241;28775;-72
2021/09/09 02:20:29;;;;;;;5.43;4.93;;;15.50;99.90;;;;;;492820;241;28800;-72
2021/09/09 02:22:30;;;;;;;5.67;5.13;;;15.50;99.90;;;;;;492764;241;28830;-72
2021/09/09 02:24:31;;;;;;;5.03;4.53;;;15.50;99.90;;;;;;492855;241;28822;-72
2021/09/09 02:26:32;;;;;;;5.67;5.07;;;15.50;99.90;;;;;;492885;241;28836;-72
2021/09/09 02:28:33;;;;;;;5.10;4.60;;;15.50;99.90;;;;;;492845;241;28829;-70
2021/09/09 02:30:35;;;;;;;5.40;4.90;;;15.70;99.90;;;;;;492827;241;28851;-72
2021/09/09 02:32:36;;;;;;;5.73;4.90;;;15.70;99.90;;;;;;492851;241;30129;-70
2021/09/09 02:34:37;;;;;;;5.60;5.00;;;15.70;99.90;;;;;;492855;241;28873;-70
2021/09/09 02:36:38;;;;;;;5.67;5.10;;;15.70;99.90;;;;;;492819;241;28832;-69
2021/09/09 02:38:40;;;;;;;5.80;5.20;;;15.60;99.90;;;;;;492827;241;28877;-70
2021/09/09 02:40:41;;;;;;;4.83;4.33;;;15.70;99.90;;;;;;492827;241;28802;-71
2021/09/09 02:42:42;;;;;;;5.40;4.90;;;15.70;99.90;;;;;;492847;241;28940;-70
2021/09/09 02:44:43;;;;;;;4.90;4.50;;;15.50;99.90;;;;;;492854;241;28892;-70
2021/09/09 02:46:45;;;;;;;5.33;4.83;;;15.60;99.90;;;;;;492808;241;29315;-70
2021/09/09 02:48:46;;;;;;;5.37;4.87;;;15.60;99.90;;;;;;492816;241;29238;-70
2021/09/09 02:50:47;;;;;;;4.93;4.47;;;15.60;99.90;;;;;;492853;241;29323;-70
2021/09/09 02:52:48;;;;;;;5.10;4.63;;;15.50;99.90;;;;;;492844;241;28828;-70
2021/09/09 02:54:50;;;;;;;4.90;4.40;;;15.40;99.90;;;;;;492807;241;28818;-70
2021/09/09 02:56:53;;;;;;;4.90;4.40;;;;;;;;;;492712;241;28833;-70
2021/09/09 02:58:57;;;;;;;4.70;4.30;;;15.40;99.90;;;;;;492637;241;26849;-72
2021/09/09 03:00:55;;;;;;;5.70;5.10;;;15.30;99.90;;;;;;492403;241;28863;-72
2021/09/09 03:02:57;;;;;;;4.87;4.20;;;15.40;99.90;;;;;;492587;241;29377;-69
2021/09/09 03:04:58;;;;;;;5.10;4.60;;;15.50;99.90;;;;;;492777;241;29230;-71
2021/09/09 03:06:59;;;;;;;5.40;4.90;;;15.50;99.90;;;;;;492819;241;29294;-72
2021/09/09 03:09:00;;;;;;;4.90;4.50;;;15.40;99.90;;;;;;492819;241;30027;-70
2021/09/09 03:11:02;;;;;;;5.27;4.77;;;15.50;99.90;;;;;;492835;241;28774;-70
2021/09/09 03:13:03;;;;;;;4.87;4.47;;;15.50;99.90;;;;;;492831;241;28935;-70
2021/09/09 03:15:04;;;;;;;4.20;3.90;;;15.50;99.90;;;;;;492843;241;28833;-70
2021/09/09 03:17:05;;;;;;;5.13;4.63;;;15.40;99.90;;;;;;492803;241;28535;-70
2021/09/09 03:19:07;;;;;;;5.03;4.53;;;15.40;99.90;;;;;;492822;241;28908;-70
2021/09/09 03:21:08;;;;;;;4.90;4.37;;;15.40;99.90;;;;;;492857;241;28784;-70
2021/09/09 03:23:09;;;;;;;4.83;4.30;;;15.40;99.90;;;;;;492831;241;28809;-70
2021/09/09 03:25:10;;;;;;;4.50;4.07;;;15.30;99.90;;;;;;492846;241;28785;-70
2021/09/09 03:27:12;;;;;;;5.13;4.63;;;15.30;99.90;;;;;;492816;241;30504;-70
2021/09/09 03:29:13;;;;;;;5.70;5.17;;;15.30;99.90;;;;;;492827;241;30094;-70
2021/09/09 03:31:14;;;;;;;5.53;5.00;;;15.40;99.90;;;;;;492844;241;30082;-69
2021/09/09 03:33:15;;;;;;;5.47;4.97;;;15.50;99.90;;;;;;492842;241;29402;-70
2021/09/09 03:35:17;;;;;;;5.10;4.53;;;15.50;99.90;;;;;;492820;241;28866;-70
2021/09/09 03:37:18;;;;;;;5.67;5.10;;;15.40;99.90;;;;;;492820;241;28827;-70
2021/09/09 03:39:19;;;;;;;5.40;4.90;;;15.60;99.90;;;;;;492803;241;28912;-70
2021/09/09 03:41:20;;;;;;;5.80;5.30;;;15.70;99.90;;;;;;492850;241;28844;-70
2021/09/09 03:43:22;;;;;;;5.77;5.27;;;15.70;99.90;;;;;;492829;241;28838;-70
2021/09/09 03:45:23;;;;;;;6.23;5.70;;;15.70;99.90;;;;;;492829;241;28789;-70
2021/09/09 03:47:24;;;;;;;5.40;4.87;;;15.80;99.90;;;;;;492823;241;28814;-70
2021/09/09 03:49:25;;;;;;;5.80;5.23;;;15.80;99.90;;;;;;492825;241;29182;-72
2021/09/09 03:51:27;;;;;;;5.23;4.83;;;15.80;99.90;;;;;;492840;241;29274;-72
2021/09/09 03:53:28;;;;;;;5.63;5.13;;;15.70;99.90;;;;;;492833;241;29304;-72
2021/09/09 03:55:29;;;;;;;7.03;5.57;;;15.70;99.90;;;;;;492848;241;29271;-72
2021/09/09 03:57:30;;;;;;;5.77;5.20;;;15.60;99.90;;;;;;492839;241;29286;-72
2021/09/09 03:59:32;;;;;;;5.83;5.23;;;15.60;99.90;;;;;;492851;241;28817;-72
2021/09/09 04:01:33;;;;;;;4.67;4.27;;;15.60;99.90;;;;;;492833;241;28771;-72
2021/09/09 04:03:34;;;;;;;5.60;5.10;;;15.50;99.90;;;;;;492831;241;28827;-69
2021/09/09 04:05:35;;;;;;;5.30;4.80;;;15.50;99.90;;;;;;492855;241;28774;-72
2021/09/09 04:07:37;;;;;;;5.50;5.00;;;15.50;99.90;;;;;;492852;241;28840;-72
2021/09/09 04:09:38;;;;;;;5.80;5.30;;;15.50;99.90;;;;;;492838;241;28886;-71
2021/09/09 04:11:39;;;;;;;6.67;6.07;;;15.50;99.90;;;;;;492882;241;28810;-72
2021/09/09 04:13:40;;;;;;;5.13;4.73;;;15.50;99.90;;;;;;492872;241;28814;-72
2021/09/09 04:15:42;;;;;;;5.30;4.90;;;15.60;99.90;;;;;;492820;241;28782;-72
2021/09/09 04:17:43;;;;;;;5.63;5.13;;;15.60;99.90;;;;;;492844;241;29261;-69
2021/09/09 04:19:44;;;;;;;5.00;4.57;;;15.60;99.90;;;;;;492866;241;29391;-69
2021/09/09 04:21:45;;;;;;;5.50;5.00;;;15.60;99.90;;;;;;492870;241;29256;-70
2021/09/09 04:23:47;;;;;;;5.47;4.97;;;15.50;99.90;;;;;;492855;241;28824;-70
2021/09/09 04:25:48;;;;;;;5.50;5.00;;;15.40;99.90;;;;;;492847;241;28783;-72
2021/09/09 04:27:49;;;;;;;5.70;5.20;;;15.30;99.90;;;;;;492809;241;28900;-72
2021/09/09 04:29:51;;;;;;;5.30;4.80;;;15.20;99.90;;;;;;492858;241;28854;-72
2021/09/09 04:31:53;;;;;;;5.87;5.37;;;15.10;99.90;;;;;;492858;241;28825;-72
2021/09/09 04:33:54;;;;;;;5.27;4.77;;;15.10;99.90;;;;;;492836;241;28821;-72
2021/09/09 04:35:55;;;;;;;6.10;5.60;;;15.20;99.90;;;;;;492823;241;29352;-70
2021/09/09 04:37:56;;;;;;;5.70;5.20;;;15.20;99.90;;;;;;492824;241;29999;-72
2021/09/09 04:39:58;;;;;;;5.90;5.40;;;15.10;99.90;;;;;;492860;241;29410;-72
2021/09/09 04:41:59;;;;;;;5.30;4.90;;;15.10;99.90;;;;;;492868;241;28841;-72
2021/09/09 04:44:00;;;;;;;5.83;5.33;;;15.10;99.90;;;;;;492802;241;28864;-71
2021/09/09 04:46:02;;;;;;;6.60;5.90;;;15.10;99.90;;;;;;492832;241;28923;-72
2021/09/09 04:48:03;;;;;;;6.07;5.50;;;15.10;99.90;;;;;;492860;241;28810;-72
2021/09/09 04:50:04;;;;;;;5.83;5.33;;;15.00;99.90;;;;;;492845;241;28818;-72
2021/09/09 04:52:05;;;;;;;6.80;6.03;;;15.00;99.90;;;;;;492848;241;28822;-72
2021/09/09 04:54:06;;;;;;;6.63;6.03;;;15.10;99.90;;;;;;492843;241;28808;-72
2021/09/09 04:56:08;;;;;;;8.93;5.93;;;15.10;99.90;;;;;;492841;241;28894;-72
2021/09/09 04:58:09;;;;;;;6.80;6.10;;;15.00;99.90;;;;;;492874;241;28823;-72
2021/09/09 05:00:10;;;;;;;6.60;6.00;;;15.00;99.90;;;;;;492831;241;29309;-69
2021/09/09 05:02:12;;;;;;;6.47;5.70;;;15.00;99.90;;;;;;492836;241;29354;-72
2021/09/09 05:04:13;;;;;;;6.20;5.70;;;15.00;99.90;;;;;;492824;241;29314;-70
2021/09/09 05:06:14;;;;;;;6.53;5.93;;;15.00;99.90;;;;;;492824;241;28837;-72
2021/09/09 05:08:15;;;;;;;6.07;5.57;;;15.00;99.90;;;;;;492849;241;28899;-72
2021/09/09 05:10:17;;;;;;;6.10;5.60;;;15.00;99.90;;;;;;492835;241;28822;-70
2021/09/09 05:12:18;;;;;;;6.20;5.60;;;14.90;99.90;;;;;;492836;241;28811;-70
2021/09/09 05:14:19;;;;;;;7.37;5.87;;;14.90;99.90;;;;;;492816;241;28865;-70
2021/09/09 05:16:20;;;;;;;6.63;6.00;;;14.90;99.90;;;;;;492791;241;28909;-71
2021/09/09 05:18:22;;;;;;;6.33;5.73;;;14.90;99.90;;;;;;492896;241;28855;-72
2021/09/09 05:20:23;;;;;;;6.53;5.83;;;14.90;99.90;;;;;;492850;241;28786;-70
2021/09/09 05:22:24;;;;;;;6.63;5.97;;;15.00;99.90;;;;;;492844;241;28822;-70
2021/09/09 05:24:25;;;;;;;6.03;5.50;;;15.00;99.90;;;;;;492855;241;29310;-70
2021/09/09 05:26:27;;;;;;;6.43;5.83;;;15.10;99.90;;;;;;492821;241;29240;-70
2021/09/09 05:28:28;;;;;;;6.13;5.53;;;15.20;99.90;;;;;;492844;241;29385;-70
2021/09/09 05:30:29;;;;;;;6.67;5.80;;;15.30;99.90;;;;;;492837;241;28801;-70
2021/09/09 05:32:31;;;;;;;5.43;4.90;;;15.30;99.90;;;;;;492825;241;28932;-70
2021/09/09 05:34:32;;;;;;;6.00;5.50;;;15.40;99.90;;;;;;492757;241;28771;-70
2021/09/09 05:36:33;;;;;;;6.20;5.60;;;15.50;99.90;;;;;;492845;241;28814;-70
2021/09/09 05:38:34;;;;;;;5.97;5.37;;;15.40;99.90;;;;;;492900;241;28843;-70
2021/09/09 05:40:35;;;;;;;6.10;5.50;;;15.40;99.90;;;;;;492864;241;28778;-70
2021/09/09 05:42:37;;;;;;;5.70;5.20;;;15.50;99.90;;;;;;492817;241;28833;-70
2021/09/09 05:44:38;;;;;;;6.10;5.50;;;15.50;99.90;;;;;;492822;241;28778;-70
2021/09/09 05:46:39;;;;;;;6.60;5.90;;;15.60;99.90;;;;;;492819;241;28805;-70
2021/09/09 05:48:40;;;;;;;5.83;5.23;;;15.60;99.90;;;;;;492859;241;29355;-69
2021/09/09 05:50:42;;;;;;;6.33;5.73;;;15.70;99.90;;;;;;492876;241;29250;-70
2021/09/09 05:52:43;;;;;;;6.70;5.80;;;15.70;99.90;;;;;;492803;241;29319;-69
2021/09/09 05:54:44;;;;;;;5.77;5.27;;;15.70;99.90;;;;;;492838;241;29339;-70
2021/09/09 05:56:45;;;;;;;6.20;5.60;;;15.80;99.90;;;;;;492801;241;28792;-70
2021/09/09 05:58:47;;;;;;;5.70;5.20;;;15.80;99.90;;;;;;492863;241;28806;-70
2021/09/09 06:00:48;;;;;;;6.00;5.40;;;15.90;99.90;;;;;;492853;241;28769;-70
2021/09/09 06:02:49;;;;;;;5.77;5.23;;;16.00;99.90;;;;;;492841;241;28806;-69
2021/09/09 06:04:51;;;;;;;7.20;6.03;;;16.10;99.90;;;;;;492826;241;28758;-69
2021/09/09 06:06:52;;;;;;;8.00;6.27;;;16.20;99.90;;;;;;492805;241;28809;-70
2021/09/09 06:08:53;;;;;;;6.67;5.53;;;16.30;99.90;;;;;;492856;241;28893;-70
2021/09/09 06:10:55;;;;;;;7.37;6.67;;;16.30;99.90;;;;;;492850;241;28806;-70
2021/09/09 06:12:55;;;;;;;6.60;5.50;;;16.40;99.90;;;;;;492758;241;29294;-70
2021/09/09 06:14:57;;;;;;;7.47;5.57;;;16.50;99.90;;;;;;492825;241;29240;-70
2021/09/09 06:16:58;;;;;;;7.53;5.97;;;16.50;99.90;;;;;;492856;241;29233;-70
2021/09/09 06:18:59;;;;;;;6.50;5.90;;;16.60;99.90;;;;;;492842;241;29383;-70
2021/09/09 06:21:00;;;;;;;7.20;6.07;;;16.70;99.90;;;;;;492855;241;28771;-72
2021/09/09 06:23:02;;;;;;;6.50;5.90;;;16.80;99.90;;;;;;492839;241;28845;-72
2021/09/09 06:25:03;;;;;;;5.60;5.10;;;16.80;99.90;;;;;;492809;241;28776;-71
2021/09/09 06:27:04;;;;;;;7.97;5.73;;;16.80;99.90;;;;;;492842;241;28825;-70
2021/09/09 06:29:05;;;;;;;6.80;6.20;;;16.80;99.90;;;;;;492833;241;28842;-71
2021/09/09 06:31:07;;;;;;;6.70;6.03;;;16.90;99.90;;;;;;492875;241;28881;-72
2021/09/09 06:33:08;;;;;;;6.20;5.60;;;17.00;99.90;;;;;;492816;241;28819;-72
2021/09/09 06:35:09;;;;;;;5.83;5.17;;;17.00;99.90;;;;;;492817;241;28774;-71
2021/09/09 06:37:10;;;;;;;6.47;5.87;;;17.00;99.90;;;;;;492835;241;29173;-71
2021/09/09 06:39:14;;;;;;;10.60;5.60;;;17.00;99.90;;;;;;492837;241;29372;-72
2021/09/09 06:41:13;;;;;;;5.60;5.10;;;17.10;99.90;;;;;;492511;241;29280;-69
2021/09/09 06:43:14;;;;;;;5.50;5.07;;;17.20;99.90;;;;;;488088;240;29306;-69
2021/09/09 06:45:15;;;;;;;6.40;5.70;;;17.30;99.90;;;;;;491043;241;28821;-71
2021/09/09 06:47:17;;;;;;;6.60;5.67;;;17.40;99.90;;;;;;485112;245;29439;-72
2021/09/09 06:49:18;;;;;;;6.30;5.70;;;17.30;99.90;;;;;;485083;245;29359;-72
2021/09/09 06:51:21;;;;;;;5.70;5.20;;;17.30;99.90;;;;;;485090;245;29394;-72
2021/09/09 06:53:20;;;;;;;6.10;5.30;;;17.30;99.90;;;;;;484964;245;29490;-71
2021/09/09 06:55:22;;;;;;;6.73;6.13;;;17.40;99.90;;;;;;485064;245;29424;-72
2021/09/09 06:57:23;;;;;;;5.23;4.63;;;17.40;99.90;;;;;;485075;245;28950;-72
2021/09/09 06:59:24;;;;;;;4.83;4.33;;;17.40;99.90;;;;;;485106;245;28976;-72
2021/09/09 07:01:25;;;;;;;8.23;4.47;;;17.50;99.90;;;;;;485091;245;28857;-69
2021/09/09 07:03:30;;;;;;;4.73;4.33;;;17.60;99.90;;;;;;485075;245;28929;-70
2021/09/09 07:05:28;;;;;;;5.40;4.87;;;17.60;99.90;;;;;;484932;245;28906;-70
2021/09/09 07:07:29;;;;;;;4.87;4.47;;;17.70;99.90;;;;;;485124;245;28979;-70
2021/09/09 07:09:30;;;;;;;5.00;4.60;;;17.80;99.90;;;;;;485108;245;28917;-69
2021/09/09 07:11:32;;;;;;;5.97;5.20;;;17.90;99.90;;;;;;485092;245;28953;-70
2021/09/09 07:13:33;;;;;;;5.00;4.50;;;17.90;99.90;;;;;;485091;245;29357;-72
2021/09/09 07:15:34;;;;;;;5.77;5.20;;;18.00;99.90;;;;;;485119;245;29349;-69
2021/09/09 07:17:36;;;;;;;5.17;4.73;;;18.10;99.90;;;;;;485075;245;29408;-69
2021/09/09 07:19:37;;;;;;;5.57;4.77;;;18.20;99.90;;;;;;485064;245;28983;-69
2021/09/09 07:21:38;;;;;;;5.43;4.93;;;18.30;99.90;;;;;;485047;245;29028;-72
2021/09/09 07:23:40;;;;;;;6.17;5.33;;;18.40;99.90;;;;;;485085;245;28894;-72
2021/09/09 07:25:40;;;;;;;5.30;4.80;;;18.50;99.90;;;;;;485073;245;28873;-72
2021/09/09 07:27:42;;;;;;;5.53;4.70;;;18.60;99.90;;;;;;485107;245;28900;-72
2021/09/09 07:29:43;;;;;;;5.30;4.80;;;18.70;99.90;;;;;;485125;245;28889;-71
2021/09/09 07:31:44;;;;;;;5.10;4.60;;;18.80;99.90;;;;;;485117;245;28913;-72
2021/09/09 07:33:45;;;;;;;5.93;4.77;;;18.90;99.90;;;;;;485111;245;28901;-69
2021/09/09 07:35:47;;;;;;;7.33;5.20;;;18.90;99.90;;;;;;485140;245;28917;-70
2021/09/09 07:37:48;;;;;;;5.40;4.80;;;18.90;99.90;;;;;;485107;245;29318;-69
2021/09/09 07:39:49;;;;;;;5.90;5.30;;;18.90;99.90;;;;;;485128;245;29358;-72
2021/09/09 07:41:50;;;;;;;8.67;5.77;;;19.00;99.90;;;;;;485118;245;29370;-72
2021/09/09 07:43:52;;;;;;;5.67;5.17;;;19.00;99.90;;;;;;485132;245;28986;-69
2021/09/09 07:45:53;;;;;;;6.10;5.50;;;19.00;99.90;;;;;;485175;245;28911;-70
2021/09/09 07:47:54;;;;;;;6.10;5.50;;;19.00;99.90;;;;;;485144;245;28894;-69
2021/09/09 07:49:55;;;;;;;6.00;5.40;;;19.00;99.90;;;;;;485130;245;28893;-70
2021/09/09 07:51:57;;;;;;;6.33;4.70;;;19.10;99.90;;;;;;485100;245;28859;-70
2021/09/09 07:53:58;;;;;;;6.03;5.13;;;19.10;99.90;;;;;;485087;245;28885;-72
2021/09/09 07:55:59;;;;;;;6.60;5.83;;;19.20;99.90;;;;;;485134;245;28909;-72
2021/09/09 07:58:00;;;;;;;6.47;5.37;;;19.50;99.90;;;;;;485129;245;28939;-71
2021/09/09 08:00:02;;;;;;;5.43;4.93;;;19.80;99.90;;;;;;485130;245;29014;-72
2021/09/09 08:02:03;;;;;;;5.33;4.83;;;20.00;99.90;;;;;;485115;245;29380;-69
2021/09/09 08:04:04;;;;;;;5.00;4.60;;;20.00;99.90;;;;;;485127;245;29384;-71
2021/09/09 08:06:05;;;;;;;4.93;4.53;;;20.10;99.90;;;;;;485176;245;29479;-72
2021/09/09 08:08:07;;;;;;;5.57;5.07;;;20.10;99.90;;;;;;485157;245;28873;-69
2021/09/09 08:10:08;;;;;;;7.57;5.60;;;20.00;99.90;;;;;;485122;245;28992;-70
2021/09/09 08:12:09;;;;;;;5.83;5.23;;;20.00;99.90;;;;;;485160;245;28934;-72
2021/09/09 08:14:10;;;;;;;7.47;5.33;;;19.90;99.90;;;;;;485135;245;28833;-69
2021/09/09 08:16:12;;;;;;;6.50;4.87;;;20.00;99.90;;;;;;485141;245;28979;-71
2021/09/09 08:18:13;;;;;;;5.80;5.20;;;19.90;99.90;;;;;;485129;245;28868;-71
2021/09/09 08:20:14;;;;;;;6.50;5.73;;;19.90;99.90;;;;;;485113;245;28981;-71
2021/09/09 08:22:16;;;;;;;6.30;5.20;;;19.80;99.90;;;;;;485143;245;28851;-71
2021/09/09 08:24:17;;;;;;;8.03;5.57;;;19.90;99.90;;;;;;485123;245;28902;-70
2021/09/09 08:26:18;;;;;;;6.03;5.43;;;19.90;99.90;;;;;;485154;245;29328;-72
2021/09/09 08:28:19;;;;;;;6.43;5.80;;;20.00;99.90;;;;;;485137;245;29287;-72
2021/09/09 08:30:21;;;;;;;6.10;5.50;;;19.90;99.90;;;;;;485158;245;29360;-72
2021/09/09 08:32:22;;;;;;;5.93;5.30;;;19.80;99.90;;;;;;485133;245;29427;-72
2021/09/09 08:34:23;;;;;;;6.17;5.60;;;19.90;99.90;;;;;;485156;245;28864;-72
2021/09/09 08:36:25;;;;;;;5.60;5.10;;;20.00;99.90;;;;;;485179;245;29005;-71
2021/09/09 08:38:26;;;;;;;5.83;5.33;;;20.30;99.90;;;;;;485168;245;28845;-72
2021/09/09 08:40:27;;;;;;;6.47;5.33;;;20.50;99.90;;;;;;485146;245;28945;-71
2021/09/09 08:42:28;;;;;;;5.53;5.03;;;20.60;99.90;;;;;;485191;245;28867;-72
2021/09/09 08:44:29;;;;;;;5.37;4.97;;;20.60;99.90;;;;;;485168;245;28858;-71
2021/09/09 08:46:31;;;;;;;5.80;5.20;;;20.70;99.90;;;;;;485189;245;29046;-73
2021/09/09 08:48:32;;;;;;;6.10;5.00;;;20.90;99.90;;;;;;485170;245;28858;-71
2021/09/09 08:50:33;;;;;;;7.80;5.27;;;21.00;99.90;;;;;;485156;245;29373;-72
2021/09/09 08:52:34;;;;;;;5.57;5.07;;;20.90;99.90;;;;;;485146;245;30087;-70
2021/09/09 08:54:36;;;;;;;6.10;5.60;;;20.80;99.90;;;;;;485114;245;29379;-72
2021/09/09 08:56:37;;;;;;;6.10;5.50;;;20.60;99.90;;;;;;485144;245;29380;-71
2021/09/09 08:58:38;;;;;;;7.40;5.30;;;20.50;99.90;;;;;;485136;245;28953;-71
2021/09/09 09:00:39;;;;;;;5.47;4.87;;;20.40;99.90;;;;;;485144;245;28895;-71
2021/09/09 09:02:41;;;;;;;5.47;4.97;;;20.40;99.90;;;;;;485128;245;28946;-71
2021/09/09 09:04:42;;;;;;;4.83;4.43;;;20.40;99.90;;;;;;485140;245;28926;-71
2021/09/09 09:06:43;;;;;;;5.27;4.77;;;20.50;99.90;;;;;;485154;245;28928;-71
2021/09/09 09:08:44;;;;;;;7.30;5.20;;;20.60;99.90;;;;;;485177;245;28918;-71
2021/09/09 09:10:46;;;;;;;5.30;4.80;;;20.80;99.90;;;;;;485129;245;28894;-71
2021/09/09 09:12:50;;;;;;;8.80;4.83;;;21.00;99.90;;;;;;485137;245;28930;-71
2021/09/09 09:14:51;;;;;;;6.43;5.07;;;21.00;99.90;;;;;;485146;245;28950;-72
2021/09/09 09:16:52;;;;;;;6.77;6.07;;;21.10;99.90;;;;;;485152;245;28855;-71
2021/09/09 09:18:53;;;;;;;6.63;6.00;;;21.20;99.90;;;;;;485129;245;28897;-71
2021/09/09 09:20:55;;;;;;;7.57;5.60;;;21.00;99.90;;;;;;485131;245;29001;-72
2021/09/09 09:22:56;;;;;;;6.13;5.53;;;21.00;99.90;;;;;;485103;245;28981;-72
2021/09/09 09:24:57;;;;;;;5.77;5.27;;;21.00;99.90;;;;;;485114;245;28911;-71
2021/09/09 09:26:58;;;;;;;7.13;5.40;;;21.00;99.90;;;;;;485123;245;29298;-71
2021/09/09 09:29:00;;;;;;;6.63;5.43;;;21.10;99.90;;;;;;485086;245;29470;-70
2021/09/09 09:31:01;;;;;;;6.13;5.20;;;21.10;99.90;;;;;;485111;245;29386;-71
2021/09/09 09:33:02;;;;;;;6.20;5.60;;;21.10;99.90;;;;;;485111;245;28940;-70
2021/09/09 09:35:03;;;;;;;5.70;5.20;;;21.20;99.90;;;;;;485133;245;28869;-70
2021/09/09 09:37:05;;;;;;;6.17;5.47;;;21.10;99.90;;;;;;485126;245;28904;-71
2021/09/09 09:39:09;;;;;;;6.07;5.03;;;21.10;99.90;;;;;;485109;245;28905;-70
2021/09/09 09:41:10;;;;;;;6.60;4.90;;;21.20;99.90;;;;;;485123;245;29370;-71
2021/09/09 09:43:11;;;;;;;9.00;5.50;;;21.10;99.90;;;;;;485137;245;29385;-71
2021/09/09 09:45:13;;;;;;;6.83;5.67;;;21.10;99.90;;;;;;485140;245;28856;-71
2021/09/09 09:47:14;;;;;;;4.93;4.50;;;21.10;99.90;;;;;;485147;245;28923;-70
2021/09/09 09:49:15;;;;;;;7.30;5.90;;;21.20;99.90;;;;;;485144;245;28932;-71
2021/09/09 09:51:16;;;;;;;5.97;5.40;;;21.40;99.90;;;;;;485132;245;28955;-71
2021/09/09 09:53:18;;;;;;;10.83;5.20;;;21.40;99.90;;;;;;485128;245;28855;-70
2021/09/09 09:55:19;;;;;;;9.07;5.40;;;21.50;99.90;;;;;;485130;245;28898;-70
2021/09/09 09:57:20;;;;;;;7.37;5.27;;;21.70;99.90;;;;;;485140;245;28891;-71
2021/09/09 09:59:21;;;;;;;7.90;5.37;;;21.60;99.90;;;;;;485133;245;28867;-70
2021/09/09 10:01:23;;;;;;;6.53;5.53;;;21.60;99.90;;;;;;485113;245;29351;-71
2021/09/09 10:03:24;;;;;;;6.03;5.30;;;21.60;99.90;;;;;;485120;245;29291;-70
2021/09/09 10:05:25;;;;;;;10.20;5.80;;;21.60;99.90;;;;;;485132;245;29421;-70
2021/09/09 10:07:26;;;;;;;7.90;5.80;;;21.70;99.90;;;;;;485170;245;28971;-70
2021/09/09 10:09:28;;;;;;;5.70;4.97;;;21.80;99.90;;;;;;485126;245;28844;-71
2021/09/09 10:11:29;;;;;;;6.00;5.40;;;22.00;99.90;;;;;;485126;245;28874;-70
2021/09/09 10:13:30;;;;;;;5.87;5.10;;;22.00;99.90;;;;;;485127;245;28919;-71
2021/09/09 10:15:32;;;;;;;5.97;4.93;;;21.90;99.90;;;;;;485121;245;28958;-70
2021/09/09 10:17:33;;;;;;;7.73;5.60;;;22.10;99.90;;;;;;485150;245;28874;-70
2021/09/09 10:19:34;;;;;;;6.03;5.43;;;22.10;99.90;;;;;;485121;245;28971;-70
2021/09/09 10:21:35;;;;;;;7.97;5.77;;;22.20;99.90;;;;;;485139;245;28978;-71
2021/09/09 10:23:36;;;;;;;6.63;5.20;;;22.30;99.90;;;;;;485128;245;28859;-71
2021/09/09 10:25:38;;;;;;;6.47;5.87;;;22.00;99.90;;;;;;485127;245;29326;-72
2021/09/09 10:27:39;;;;;;;6.47;5.80;;;22.00;99.90;;;;;;485136;245;29350;-71
2021/09/09 10:29:40;;;;;;;5.70;5.20;;;22.00;99.90;;;;;;485119;245;29408;-71
2021/09/09 10:31:41;;;;;;;6.80;6.20;;;22.00;99.90;;;;;;485159;245;28897;-72